sensor_id;sensor_type;location;lat;lon;timestamp;pressure;altitude;pressure_sealevel;temperature;humidity
34586;BME280;20816;50.950;11.108;2023-07-28T00:01:34;97417.09;;;17.33;100.00
34586;BME280;20816;50.950;11.108;2023-07-28T00:04:01;97414.13;;;17.37;100.00
34586;BME280;20816;50.950;11.108;2023-07-28T00:06:31;97410.53;;;17.38;100.00
34586;BME280;20816;50.950;11.108;2023-07-28T00:09:00;97420.53;;;17.35;100.00
34586;BME280;20816;50.950;11.108;2023-07-28T00:11:27;97427.94;;;17.30;100.00
34586;BME280;20816;50.950;11.108;2023-07-28T00:13:54;97424.53;;;17.28;100.00
34586;BME280;20816;50.950;11.108;2023-07-28T00:16:21;97429.19;;;17.24;100.00
34586;BME280;20816;50.950;11.108;2023-07-28T00:18:47;97429.09;;;17.26;100.00
34586;BME280;20816;50.950;11.108;2023-07-28T00:21:14;97427.28;;;17.26;100.00
34586;BME280;20816;50.950;11.108;2023-07-28T00:23:41;97426.13;;;17.30;100.00
34586;BME280;20816;50.950;11.108;2023-07-28T00:26:07;97433.22;;;17.17;100.00
34586;BME280;20816;50.950;11.108;2023-07-28T00:28:34;97422.59;;;17.17;100.00
34586;BME280;20816;50.950;11.108;2023-07-28T00:31:01;97425.75;;;17.09;100.00
34586;BME280;20816;50.950;11.108;2023-07-28T00:33:28;97432.34;;;17.17;100.00
34586;BME280;20816;50.950;11.108;2023-07-28T00:35:54;97428.22;;;17.13;100.00
34586;BME280;20816;50.950;11.108;2023-07-28T00:38:21;97428.34;;;17.11;100.00
34586;BME280;20816;50.950;11.108;2023-07-28T00:40:48;97427.91;;;17.17;100.00
34586;BME280;20816;50.950;11.108;2023-07-28T00:43:14;97425.22;;;17.04;100.00
34586;BME280;20816;50.950;11.108;2023-07-28T00:45:41;97426.19;;;17.03;100.00
34586;BME280;20816;50.950;11.108;2023-07-28T00:48:12;97415.34;;;17.06;100.00
34586;BME280;20816;50.950;11.108;2023-07-28T00:50:44;97416.53;;;17.02;100.00
34586;BME280;20816;50.950;11.108;2023-07-28T00:53:11;97405.81;;;17.04;100.00
34586;BME280;20816;50.950;11.108;2023-07-28T00:55:38;97403.25;;;17.02;100.00
34586;BME280;20816;50.950;11.108;2023-07-28T00:58:05;97402.69;;;16.97;100.00
34586;BME280;20816;50.950;11.108;2023-07-28T01:00:32;97399.81;;;17.00;100.00
34586;BME280;20816;50.950;11.108;2023-07-28T01:02:58;97394.06;;;16.94;100.00
34586;BME280;20816;50.950;11.108;2023-07-28T01:05:47;97397.59;;;16.94;100.00
34586;BME280;20816;50.950;11.108;2023-07-28T01:08:21;97389.66;;;16.94;100.00
34586;BME280;20816;50.950;11.108;2023-07-28T01:10:51;97389.81;;;16.91;100.00
34586;BME280;20816;50.950;11.108;2023-07-28T01:13:18;97404.16;;;16.89;100.00
34586;BME280;20816;50.950;11.108;2023-07-28T01:15:45;97404.69;;;16.94;100.00
34586;BME280;20816;50.950;11.108;2023-07-28T01:18:12;97398.53;;;16.93;100.00
34586;BME280;20816;50.950;11.108;2023-07-28T01:20:39;97395.03;;;16.93;100.00
34586;BME280;20816;50.950;11.108;2023-07-28T01:23:10;97394.53;;;17.00;100.00
34586;BME280;20816;50.950;11.108;2023-07-28T01:26:08;97389.44;;;16.97;100.00
34586;BME280;20816;50.950;11.108;2023-07-28T01:28:36;97384.53;;;16.91;100.00
34586;BME280;20816;50.950;11.108;2023-07-28T01:31:06;97384.53;;;16.91;100.00
34586;BME280;20816;50.950;11.108;2023-07-28T01:33:34;97387.06;;;16.93;100.00
34586;BME280;20816;50.950;11.108;2023-07-28T01:36:01;97383.06;;;17.00;100.00
34586;BME280;20816;50.950;11.108;2023-07-28T01:38:28;97374.97;;;17.01;100.00
34586;BME280;20816;50.950;11.108;2023-07-28T01:40:55;97374.00;;;16.90;100.00
34586;BME280;20816;50.950;11.108;2023-07-28T01:43:22;97380.28;;;16.89;100.00
34586;BME280;20816;50.950;11.108;2023-07-28T01:45:48;97375.06;;;16.87;100.00
34586;BME280;20816;50.950;11.108;2023-07-28T01:48:15;97392.88;;;16.85;100.00
34586;BME280;20816;50.950;11.108;2023-07-28T01:50:42;97395.53;;;16.85;100.00
34586;BME280;20816;50.950;11.108;2023-07-28T01:53:09;97398.28;;;16.84;100.00
34586;BME280;20816;50.950;11.108;2023-07-28T01:55:36;97395.66;;;16.84;100.00
34586;BME280;20816;50.950;11.108;2023-07-28T01:58:02;97409.75;;;16.84;100.00
34586;BME280;20816;50.950;11.108;2023-07-28T02:00:29;97420.19;;;16.87;100.00
34586;BME280;20816;50.950;11.108;2023-07-28T02:02:56;97425.91;;;16.81;100.00
34586;BME280;20816;50.950;11.108;2023-07-28T02:05:24;97411.66;;;16.82;100.00
34586;BME280;20816;50.950;11.108;2023-07-28T02:07:51;97408.28;;;16.80;100.00
34586;BME280;20816;50.950;11.108;2023-07-28T02:10:18;97396.50;;;16.84;100.00
34586;BME280;20816;50.950;11.108;2023-07-28T02:12:45;97397.09;;;16.75;100.00
34586;BME280;20816;50.950;11.108;2023-07-28T02:15:11;97392.53;;;16.77;100.00
34586;BME280;20816;50.950;11.108;2023-07-28T02:17:39;97394.66;;;16.72;100.00
34586;BME280;20816;50.950;11.108;2023-07-28T02:20:06;97392.75;;;16.74;100.00
34586;BME280;20816;50.950;11.108;2023-07-28T02:22:37;97386.59;;;16.73;100.00
34586;BME280;20816;50.950;11.108;2023-07-28T02:25:04;97392.53;;;16.77;100.00
34586;BME280;20816;50.950;11.108;2023-07-28T02:27:30;97395.78;;;16.68;100.00
34586;BME280;20816;50.950;11.108;2023-07-28T02:29:57;97399.75;;;16.75;100.00
34586;BME280;20816;50.950;11.108;2023-07-28T02:32:25;97398.06;;;16.74;100.00
34586;BME280;20816;50.950;11.108;2023-07-28T02:34:52;97399.66;;;16.76;100.00
34586;BME280;20816;50.950;11.108;2023-07-28T02:37:19;97411.44;;;16.72;100.00
34586;BME280;20816;50.950;11.108;2023-07-28T02:39:45;97404.53;;;16.70;100.00
34586;BME280;20816;50.950;11.108;2023-07-28T02:42:12;97415.69;;;16.75;100.00
34586;BME280;20816;50.950;11.108;2023-07-28T02:44:39;97423.09;;;16.70;100.00
34586;BME280;20816;50.950;11.108;2023-07-28T02:47:06;97420.50;;;16.68;100.00
34586;BME280;20816;50.950;11.108;2023-07-28T02:49:32;97417.19;;;16.79;100.00
34586;BME280;20816;50.950;11.108;2023-07-28T02:51:59;97421.00;;;16.75;100.00
34586;BME280;20816;50.950;11.108;2023-07-28T02:54:26;97429.69;;;16.77;100.00
34586;BME280;20816;50.950;11.108;2023-07-28T02:56:52;97429.69;;;16.77;100.00
34586;BME280;20816;50.950;11.108;2023-07-28T02:59:21;97429.16;;;16.72;100.00
34586;BME280;20816;50.950;11.108;2023-07-28T03:01:49;97432.38;;;16.63;100.00
34586;BME280;20816;50.950;11.108;2023-07-28T03:04:19;97436.91;;;16.75;100.00
34586;BME280;20816;50.950;11.108;2023-07-28T03:06:48;97429.06;;;16.73;100.00
34586;BME280;20816;50.950;11.108;2023-07-28T03:09:15;97430.69;;;16.62;100.00
34586;BME280;20816;50.950;11.108;2023-07-28T03:11:42;97428.09;;;16.60;100.00
34586;BME280;20816;50.950;11.108;2023-07-28T03:14:10;97443.16;;;16.60;100.00
34586;BME280;20816;50.950;11.108;2023-07-28T03:16:36;97448.09;;;16.66;100.00
34586;BME280;20816;50.950;11.108;2023-07-28T03:19:04;97446.19;;;16.68;100.00
34586;BME280;20816;50.950;11.108;2023-07-28T03:21:30;97439.19;;;16.67;100.00
34586;BME280;20816;50.950;11.108;2023-07-28T03:24:04;97440.88;;;16.68;100.00
34586;BME280;20816;50.950;11.108;2023-07-28T03:26:30;97444.38;;;16.68;100.00
34586;BME280;20816;50.950;11.108;2023-07-28T03:28:57;97444.34;;;16.70;100.00
34586;BME280;20816;50.950;11.108;2023-07-28T03:31:24;97442.16;;;16.62;100.00
34586;BME280;20816;50.950;11.108;2023-07-28T03:33:51;97450.00;;;16.64;100.00
34586;BME280;20816;50.950;11.108;2023-07-28T03:36:18;97450.28;;;16.59;100.00
34586;BME280;20816;50.950;11.108;2023-07-28T03:38:46;97458.44;;;16.56;100.00
34586;BME280;20816;50.950;11.108;2023-07-28T03:41:13;97455.47;;;16.61;100.00
34586;BME280;20816;50.950;11.108;2023-07-28T03:43:41;97463.84;;;16.54;100.00
34586;BME280;20816;50.950;11.108;2023-07-28T03:46:07;97465.00;;;16.50;100.00
34586;BME280;20816;50.950;11.108;2023-07-28T03:48:34;97476.94;;;16.43;100.00
34586;BME280;20816;50.950;11.108;2023-07-28T03:51:01;97471.84;;;16.40;100.00
34586;BME280;20816;50.950;11.108;2023-07-28T03:53:28;97471.34;;;16.48;100.00
34586;BME280;20816;50.950;11.108;2023-07-28T03:55:55;97467.84;;;16.47;100.00
34586;BME280;20816;50.950;11.108;2023-07-28T03:58:25;97475.59;;;16.50;100.00
34586;BME280;20816;50.950;11.108;2023-07-28T04:00:52;97477.50;;;16.48;100.00
34586;BME280;20816;50.950;11.108;2023-07-28T04:03:20;97469.53;;;16.48;100.00
34586;BME280;20816;50.950;11.108;2023-07-28T04:05:47;97463.06;;;16.52;100.00
34586;BME280;20816;50.950;11.108;2023-07-28T04:08:14;97470.50;;;16.47;100.00
34586;BME280;20816;50.950;11.108;2023-07-28T04:10:40;97474.53;;;16.53;100.00
34586;BME280;20816;50.950;11.108;2023-07-28T04:13:08;97474.97;;;16.47;100.00
34586;BME280;20816;50.950;11.108;2023-07-28T04:15:35;97476.56;;;16.49;100.00
34586;BME280;20816;50.950;11.108;2023-07-28T04:18:02;97482.06;;;16.46;100.00
34586;BME280;20816;50.950;11.108;2023-07-28T04:20:29;97475.59;;;16.50;100.00
34586;BME280;20816;50.950;11.108;2023-07-28T04:22:55;97483.75;;;16.47;100.00
34586;BME280;20816;50.950;11.108;2023-07-28T04:25:22;97489.81;;;16.49;100.00
34586;BME280;20816;50.950;11.108;2023-07-28T04:27:49;97485.47;;;16.48;100.00
34586;BME280;20816;50.950;11.108;2023-07-28T04:30:15;97482.06;;;16.46;100.00
34586;BME280;20816;50.950;11.108;2023-07-28T04:32:42;97487.66;;;16.42;100.00
34586;BME280;20816;50.950;11.108;2023-07-28T04:35:09;97483.56;;;16.50;100.00
34586;BME280;20816;50.950;11.108;2023-07-28T04:37:36;97488.13;;;16.48;100.00
34586;BME280;20816;50.950;11.108;2023-07-28T04:40:02;97484.88;;;16.43;100.00
34586;BME280;20816;50.950;11.108;2023-07-28T04:42:30;97476.56;;;16.49;100.00
34586;BME280;20816;50.950;11.108;2023-07-28T04:44:56;97479.03;;;16.38;100.00
34586;BME280;20816;50.950;11.108;2023-07-28T04:47:23;97480.25;;;16.47;100.00
34586;BME280;20816;50.950;11.108;2023-07-28T04:49:49;97478.34;;;16.49;100.00
34586;BME280;20816;50.950;11.108;2023-07-28T04:52:16;97482.81;;;16.48;100.00
34586;BME280;20816;50.950;11.108;2023-07-28T04:54:43;97478.09;;;16.39;100.00
34586;BME280;20816;50.950;11.108;2023-07-28T04:57:10;97484.72;;;16.46;100.00
34586;BME280;20816;50.950;11.108;2023-07-28T04:59:40;97488.50;;;16.42;100.00
34586;BME280;20816;50.950;11.108;2023-07-28T05:02:07;97490.41;;;16.40;100.00
34586;BME280;20816;50.950;11.108;2023-07-28T05:04:34;97495.41;;;16.45;100.00
34586;BME280;20816;50.950;11.108;2023-07-28T05:07:02;97497.97;;;16.46;100.00
34586;BME280;20816;50.950;11.108;2023-07-28T05:09:29;97507.81;;;16.44;100.00
34586;BME280;20816;50.950;11.108;2023-07-28T05:11:56;97504.66;;;16.52;100.00
34586;BME280;20816;50.950;11.108;2023-07-28T05:14:23;97517.06;;;16.66;100.00
34586;BME280;20816;50.950;11.108;2023-07-28T05:16:49;97510.06;;;16.65;100.00
34586;BME280;20816;50.950;11.108;2023-07-28T05:19:16;97511.31;;;16.73;100.00
34586;BME280;20816;50.950;11.108;2023-07-28T05:21:43;97518.22;;;16.76;100.00
34586;BME280;20816;50.950;11.108;2023-07-28T05:24:09;97509.88;;;16.82;100.00
34586;BME280;20816;50.950;11.108;2023-07-28T05:26:36;97519.34;;;16.86;100.00
34586;BME280;20816;50.950;11.108;2023-07-28T05:29:03;97527.38;;;16.85;100.00
34586;BME280;20816;50.950;11.108;2023-07-28T05:31:29;97529.38;;;16.95;100.00
34586;BME280;20816;50.950;11.108;2023-07-28T05:33:56;97526.22;;;17.03;100.00
34586;BME280;20816;50.950;11.108;2023-07-28T05:36:23;97534.25;;;17.01;100.00
34586;BME280;20816;50.950;11.108;2023-07-28T05:38:50;97536.16;;;16.99;100.00
34586;BME280;20816;50.950;11.108;2023-07-28T05:41:17;97528.19;;;16.99;100.00
34586;BME280;20816;50.950;11.108;2023-07-28T05:43:44;97544.22;;;16.98;100.00
34586;BME280;20816;50.950;11.108;2023-07-28T05:46:11;97537.22;;;16.97;100.00
34586;BME280;20816;50.950;11.108;2023-07-28T05:48:38;97535.78;;;17.05;100.00
34586;BME280;20816;50.950;11.108;2023-07-28T05:51:04;97539.53;;;17.16;100.00
34586;BME280;20816;50.950;11.108;2023-07-28T05:53:31;97537.97;;;17.26;100.00
34586;BME280;20816;50.950;11.108;2023-07-28T05:55:58;97536.25;;;17.25;100.00
34586;BME280;20816;50.950;11.108;2023-07-28T05:58:25;97531.00;;;17.37;100.00
34586;BME280;20816;50.950;11.108;2023-07-28T06:00:51;97536.56;;;17.47;100.00
34586;BME280;20816;50.950;11.108;2023-07-28T06:03:18;97536.16;;;17.53;100.00
34586;BME280;20816;50.950;11.108;2023-07-28T06:05:45;97532.28;;;17.72;100.00
34586;BME280;20816;50.950;11.108;2023-07-28T06:08:12;97534.97;;;17.97;100.00
34586;BME280;20816;50.950;11.108;2023-07-28T06:10:38;97529.00;;;18.06;100.00
34586;BME280;20816;50.950;11.108;2023-07-28T06:13:05;97534.31;;;18.06;100.00
34586;BME280;20816;50.950;11.108;2023-07-28T06:15:32;97540.72;;;18.29;100.00
34586;BME280;20816;50.950;11.108;2023-07-28T06:18:01;97545.38;;;18.51;100.00
34586;BME280;20816;50.950;11.108;2023-07-28T06:20:29;97541.97;;;18.74;100.00
34586;BME280;20816;50.950;11.108;2023-07-28T06:22:56;97544.84;;;18.71;100.00
34586;BME280;20816;50.950;11.108;2023-07-28T06:25:23;97547.31;;;18.49;100.00
34586;BME280;20816;50.950;11.108;2023-07-28T06:27:50;97544.53;;;18.38;100.00
34586;BME280;20816;50.950;11.108;2023-07-28T06:30:17;97554.75;;;18.31;100.00
34586;BME280;20816;50.950;11.108;2023-07-28T06:32:43;97557.09;;;18.36;100.00
34586;BME280;20816;50.950;11.108;2023-07-28T06:35:10;97554.31;;;18.50;100.00
34586;BME280;20816;50.950;11.108;2023-07-28T06:37:37;97568.38;;;18.52;100.00
34586;BME280;20816;50.950;11.108;2023-07-28T06:40:07;97563.00;;;18.65;100.00
34586;BME280;20816;50.950;11.108;2023-07-28T06:42:36;97574.09;;;18.84;100.00
34586;BME280;20816;50.950;11.108;2023-07-28T06:45:04;97555.28;;;19.11;100.00
34586;BME280;20816;50.950;11.108;2023-07-28T06:47:30;97556.50;;;19.31;100.00
34586;BME280;20816;50.950;11.108;2023-07-28T06:49:57;97555.25;;;19.83;100.00
34586;BME280;20816;50.950;11.108;2023-07-28T06:52:24;97563.34;;;20.05;100.00
34586;BME280;20816;50.950;11.108;2023-07-28T06:54:50;97567.78;;;19.94;100.00
34586;BME280;20816;50.950;11.108;2023-07-28T06:57:17;97571.47;;;20.04;100.00
34586;BME280;20816;50.950;11.108;2023-07-28T06:59:44;97573.88;;;19.96;100.00
34586;BME280;20816;50.950;11.108;2023-07-28T07:02:11;97568.03;;;20.02;100.00
34586;BME280;20816;50.950;11.108;2023-07-28T07:04:38;97570.75;;;20.35;100.00
34586;BME280;20816;50.950;11.108;2023-07-28T07:07:05;97561.00;;;20.58;100.00
34586;BME280;20816;50.950;11.108;2023-07-28T07:09:33;97563.78;;;20.79;100.00
34586;BME280;20816;50.950;11.108;2023-07-28T07:12:02;97557.50;;;21.23;100.00
34586;BME280;20816;50.950;11.108;2023-07-28T07:14:29;97557.75;;;21.75;100.00
34586;BME280;20816;50.950;11.108;2023-07-28T07:16:56;97556.00;;;22.27;100.00
34586;BME280;20816;50.950;11.108;2023-07-28T07:19:22;97550.59;;;22.69;100.00
34586;BME280;20816;50.950;11.108;2023-07-28T07:21:49;97545.69;;;22.43;100.00
34586;BME280;20816;50.950;11.108;2023-07-28T07:24:17;97552.09;;;22.61;99.91
34586;BME280;20816;50.950;11.108;2023-07-28T07:26:44;97556.22;;;22.65;100.00
34586;BME280;20816;50.950;11.108;2023-07-28T07:29:11;97562.28;;;22.67;100.00
34586;BME280;20816;50.950;11.108;2023-07-28T07:31:38;97565.84;;;23.08;98.84
34586;BME280;20816;50.950;11.108;2023-07-28T07:34:05;97564.97;;;23.67;95.96
34586;BME280;20816;50.950;11.108;2023-07-28T07:36:32;97567.63;;;23.58;93.23
34586;BME280;20816;50.950;11.108;2023-07-28T07:38:59;97581.06;;;22.77;96.39
34586;BME280;20816;50.950;11.108;2023-07-28T07:41:26;97577.16;;;22.30;98.81
34586;BME280;20816;50.950;11.108;2023-07-28T07:43:53;97578.75;;;22.32;99.14
34586;BME280;20816;50.950;11.108;2023-07-28T07:46:22;97564.75;;;22.50;97.39
34586;BME280;20816;50.950;11.108;2023-07-28T07:48:49;97574.66;;;22.59;95.97
34586;BME280;20816;50.950;11.108;2023-07-28T07:51:16;97572.00;;;22.89;96.72
34586;BME280;20816;50.950;11.108;2023-07-28T07:53:43;97569.44;;;22.88;96.25
34586;BME280;20816;50.950;11.108;2023-07-28T07:56:11;97573.63;;;22.81;96.94
34586;BME280;20816;50.950;11.108;2023-07-28T07:58:37;97566.47;;;23.31;95.22
34586;BME280;20816;50.950;11.108;2023-07-28T08:01:05;97581.06;;;22.98;95.05
34586;BME280;20816;50.950;11.108;2023-07-28T08:03:32;97578.78;;;23.03;96.22
34586;BME280;20816;50.950;11.108;2023-07-28T08:05:58;97570.59;;;22.95;93.92
34586;BME280;20816;50.950;11.108;2023-07-28T08:08:25;97575.22;;;22.62;95.50
34586;BME280;20816;50.950;11.108;2023-07-28T08:10:54;97562.63;;;22.84;95.40
34586;BME280;20816;50.950;11.108;2023-07-28T08:13:21;97568.75;;;22.96;96.41
34586;BME280;20816;50.950;11.108;2023-07-28T08:15:48;97569.84;;;23.33;93.32
34586;BME280;20816;50.950;11.108;2023-07-28T08:18:15;97565.13;;;23.75;90.93
34586;BME280;20816;50.950;11.108;2023-07-28T08:20:42;97567.34;;;24.09;89.57
34586;BME280;20816;50.950;11.108;2023-07-28T08:23:09;97564.28;;;23.65;90.43
34586;BME280;20816;50.950;11.108;2023-07-28T08:25:36;97567.53;;;23.09;91.04
34586;BME280;20816;50.950;11.108;2023-07-28T08:28:03;97560.47;;;23.08;92.28
34586;BME280;20816;50.950;11.108;2023-07-28T08:30:30;97575.38;;;23.51;90.91
34586;BME280;20816;50.950;11.108;2023-07-28T08:32:59;97556.66;;;23.80;89.43
34586;BME280;20816;50.950;11.108;2023-07-28T08:35:25;97565.97;;;24.05;88.32
34586;BME280;20816;50.950;11.108;2023-07-28T08:37:53;97563.44;;;24.03;86.49
34586;BME280;20816;50.950;11.108;2023-07-28T08:40:20;97569.63;;;23.94;86.78
34586;BME280;20816;50.950;11.108;2023-07-28T08:42:46;97574.72;;;24.07;86.00
34586;BME280;20816;50.950;11.108;2023-07-28T08:45:14;97574.91;;;24.62;84.92
34586;BME280;20816;50.950;11.108;2023-07-28T08:47:41;97584.59;;;24.36;84.45
34586;BME280;20816;50.950;11.108;2023-07-28T08:50:09;97586.69;;;24.42;84.09
34586;BME280;20816;50.950;11.108;2023-07-28T08:52:36;97595.00;;;24.58;83.40
34586;BME280;20816;50.950;11.108;2023-07-28T08:55:03;97603.13;;;24.76;83.38
34586;BME280;20816;50.950;11.108;2023-07-28T08:57:30;97599.81;;;25.01;83.00
34586;BME280;20816;50.950;11.108;2023-07-28T08:59:56;97600.44;;;25.23;82.25
34586;BME280;20816;50.950;11.108;2023-07-28T09:02:23;97603.38;;;25.29;82.22
34586;BME280;20816;50.950;11.108;2023-07-28T09:04:50;97601.13;;;25.70;80.53
34586;BME280;20816;50.950;11.108;2023-07-28T09:07:17;97608.66;;;25.21;80.72
34586;BME280;20816;50.950;11.108;2023-07-28T09:09:44;97599.38;;;24.59;81.98
34586;BME280;20816;50.950;11.108;2023-07-28T09:12:11;97611.22;;;24.66;83.95
34586;BME280;20816;50.950;11.108;2023-07-28T09:14:38;97604.38;;;24.44;82.73
34586;BME280;20816;50.950;11.108;2023-07-28T09:17:09;97606.84;;;24.65;83.09
34586;BME280;20816;50.950;11.108;2023-07-28T09:19:56;97612.59;;;25.72;80.94
34586;BME280;20816;50.950;11.108;2023-07-28T09:22:23;97611.69;;;26.17;79.00
34586;BME280;20816;50.950;11.108;2023-07-28T09:24:51;97626.31;;;26.32;77.85
34586;BME280;20816;50.950;11.108;2023-07-28T09:27:25;97626.47;;;26.48;77.72
34586;BME280;20816;50.950;11.108;2023-07-28T09:29:54;97629.78;;;26.68;77.25
34586;BME280;20816;50.950;11.108;2023-07-28T09:32:29;97628.19;;;25.51;78.30
34586;BME280;20816;50.950;11.108;2023-07-28T09:35:11;97629.69;;;25.35;79.87
34586;BME280;20816;50.950;11.108;2023-07-28T09:37:44;97642.47;;;25.51;79.66
34586;BME280;20816;50.950;11.108;2023-07-28T09:40:12;97639.88;;;25.04;81.00
34586;BME280;20816;50.950;11.108;2023-07-28T09:42:41;97637.63;;;24.90;82.59
34586;BME280;20816;50.950;11.108;2023-07-28T09:45:09;97640.53;;;24.50;81.29
34586;BME280;20816;50.950;11.108;2023-07-28T09:48:01;97641.97;;;24.25;82.00
34586;BME280;20816;50.950;11.108;2023-07-28T09:50:32;97645.06;;;24.01;84.55
34586;BME280;20816;50.950;11.108;2023-07-28T09:53:02;97656.66;;;23.82;86.17
34586;BME280;20816;50.950;11.108;2023-07-28T09:55:29;97657.19;;;23.66;85.86
34586;BME280;20816;50.950;11.108;2023-07-28T09:57:58;97653.31;;;23.59;86.90
34586;BME280;20816;50.950;11.108;2023-07-28T10:00:28;97663.91;;;23.51;86.16
34586;BME280;20816;50.950;11.108;2023-07-28T10:02:56;97655.34;;;23.27;88.02
34586;BME280;20816;50.950;11.108;2023-07-28T10:05:25;97666.91;;;23.17;89.20
34586;BME280;20816;50.950;11.108;2023-07-28T10:07:53;97669.25;;;23.51;89.77
34586;BME280;20816;50.950;11.108;2023-07-28T10:10:20;97669.44;;;23.59;89.50
34586;BME280;20816;50.950;11.108;2023-07-28T10:12:51;97670.63;;;23.36;89.64
34586;BME280;20816;50.950;11.108;2023-07-28T10:15:28;97664.03;;;23.09;89.27
34586;BME280;20816;50.950;11.108;2023-07-28T10:17:56;97657.34;;;23.34;90.27
34586;BME280;20816;50.950;11.108;2023-07-28T10:20:39;97656.41;;;24.33;85.87
34586;BME280;20816;50.950;11.108;2023-07-28T10:23:14;97668.84;;;24.54;84.42
34586;BME280;20816;50.950;11.108;2023-07-28T10:25:42;97659.22;;;24.42;84.66
34586;BME280;20816;50.950;11.108;2023-07-28T10:30:54;97664.59;;;24.42;84.97
34586;BME280;20816;50.950;11.108;2023-07-28T10:33:35;97659.22;;;24.42;85.95
34586;BME280;20816;50.950;11.108;2023-07-28T10:41:34;97664.44;;;24.14;85.50
34586;BME280;20816;50.950;11.108;2023-07-28T10:44:02;97670.25;;;24.29;84.85
34586;BME280;20816;50.950;11.108;2023-07-28T10:46:29;97664.75;;;24.11;84.38
34586;BME280;20816;50.950;11.108;2023-07-28T10:48:56;97674.75;;;23.90;85.83
34586;BME280;20816;50.950;11.108;2023-07-28T10:51:26;97669.97;;;24.22;84.49
34586;BME280;20816;50.950;11.108;2023-07-28T10:53:58;97664.34;;;24.45;83.03
34586;BME280;20816;50.950;11.108;2023-07-28T10:56:26;97667.03;;;24.92;81.22
34586;BME280;20816;50.950;11.108;2023-07-28T10:59:03;97666.03;;;25.39;79.93
34586;BME280;20816;50.950;11.108;2023-07-28T11:01:32;97662.06;;;25.43;79.56
34586;BME280;20816;50.950;11.108;2023-07-28T11:04:15;97665.28;;;25.20;78.76
34586;BME280;20816;50.950;11.108;2023-07-28T11:06:51;97662.28;;;24.66;81.80
34586;BME280;20816;50.950;11.108;2023-07-28T11:09:21;97666.53;;;24.78;81.66
34586;BME280;20816;50.950;11.108;2023-07-28T11:11:49;97659.66;;;24.47;82.88
34586;BME280;20816;50.950;11.108;2023-07-28T11:14:17;97657.25;;;24.53;81.48
34586;BME280;20816;50.950;11.108;2023-07-28T11:16:45;97662.63;;;24.44;82.54
34586;BME280;20816;50.950;11.108;2023-07-28T11:19:15;97663.72;;;24.31;82.48
34586;BME280;20816;50.950;11.108;2023-07-28T11:21:44;97659.09;;;24.53;82.34
34586;BME280;20816;50.950;11.108;2023-07-28T11:24:20;97663.31;;;24.55;81.62
34586;BME280;20816;50.950;11.108;2023-07-28T11:26:49;97666.41;;;24.51;80.73
34586;BME280;20816;50.950;11.108;2023-07-28T11:29:18;97666.31;;;24.52;81.74
34586;BME280;20816;50.950;11.108;2023-07-28T11:31:45;97662.03;;;24.50;82.51
34586;BME280;20816;50.950;11.108;2023-07-28T11:34:16;97660.50;;;24.38;82.93
34586;BME280;20816;50.950;11.108;2023-07-28T11:36:43;97661.19;;;24.49;83.02
34586;BME280;20816;50.950;11.108;2023-07-28T11:39:10;97661.06;;;25.07;80.80
34586;BME280;20816;50.950;11.108;2023-07-28T11:41:38;97656.09;;;25.50;79.37
34586;BME280;20816;50.950;11.108;2023-07-28T11:44:06;97664.34;;;25.93;78.18
34586;BME280;20816;50.950;11.108;2023-07-28T11:46:40;97673.41;;;26.28;75.41
34586;BME280;20816;50.950;11.108;2023-07-28T11:51:39;97653.53;;;27.17;73.03
34586;BME280;20816;50.950;11.108;2023-07-28T11:54:06;97658.94;;;27.59;72.18
34586;BME280;20816;50.950;11.108;2023-07-28T11:56:33;97658.75;;;27.86;71.25
34586;BME280;20816;50.950;11.108;2023-07-28T11:59:01;97670.78;;;27.24;73.68
34586;BME280;20816;50.950;11.108;2023-07-28T12:01:29;97661.13;;;26.95;73.30
34586;BME280;20816;50.950;11.108;2023-07-28T12:03:55;97663.63;;;27.06;73.27
34586;BME280;20816;50.950;11.108;2023-07-28T12:06:23;97666.75;;;26.76;72.33
34586;BME280;20816;50.950;11.108;2023-07-28T12:09:04;97667.47;;;26.60;74.47
34586;BME280;20816;50.950;11.108;2023-07-28T12:11:34;97676.53;;;27.03;73.10
34586;BME280;20816;50.950;11.108;2023-07-28T12:14:04;97671.19;;;26.85;73.54
34586;BME280;20816;50.950;11.108;2023-07-28T12:16:41;97671.81;;;26.79;72.42
34586;BME280;20816;50.950;11.108;2023-07-28T12:19:17;97669.09;;;27.23;71.21
34586;BME280;20816;50.950;11.108;2023-07-28T12:21:43;97661.63;;;27.51;69.13
34586;BME280;20816;50.950;11.108;2023-07-28T12:24:10;97667.78;;;27.35;70.82
34586;BME280;20816;50.950;11.108;2023-07-28T12:26:37;97664.94;;;27.71;70.15
34586;BME280;20816;50.950;11.108;2023-07-28T12:29:06;97666.13;;;27.76;70.29
34586;BME280;20816;50.950;11.108;2023-07-28T12:31:37;97664.16;;;27.52;69.92
34586;BME280;20816;50.950;11.108;2023-07-28T12:34:07;97673.94;;;27.19;69.84
34586;BME280;20816;50.950;11.108;2023-07-28T12:36:34;97664.69;;;27.56;69.83
34586;BME280;20816;50.950;11.108;2023-07-28T12:39:03;97668.97;;;27.67;69.42
34586;BME280;20816;50.950;11.108;2023-07-28T12:41:50;97671.97;;;27.63;71.18
34586;BME280;20816;50.950;11.108;2023-07-28T12:44:20;97676.31;;;27.14;70.65
34586;BME280;20816;50.950;11.108;2023-07-28T12:47:08;97680.13;;;26.60;73.57
34586;BME280;20816;50.950;11.108;2023-07-28T12:49:34;97683.44;;;26.18;74.55
34586;BME280;20816;50.950;11.108;2023-07-28T12:52:04;97685.88;;;25.93;74.29
34586;BME280;20816;50.950;11.108;2023-07-28T12:54:33;97685.00;;;25.75;75.46
34586;BME280;20816;50.950;11.108;2023-07-28T12:57:10;97689.44;;;25.57;76.78
34586;BME280;20816;50.950;11.108;2023-07-28T12:59:39;97687.69;;;25.75;77.46
34586;BME280;20816;50.950;11.108;2023-07-28T13:02:09;97691.28;;;25.29;78.09